Time;durP1;ratioP1;P1;durP2;ratioP2;P2;SDS_P1;SDS_P2;PMS_P1;PMS_P2;Temp;Humidity;BMP_temperature;BMP_pressure;BME280_temperature;BME280_humidity;BME280_pressure;Samples;Min_cycle;Max_cycle;Signal;HPM_P1;HPM_P2
2023/04/05 00:01:37;;;;;;;10.80;7.00;;;6.30;95.40;;;;;;5045935;28;20220;-32
2023/04/05 00:04:09;;;;;;;12.70;7.67;;;6.20;95.30;;;;;;5047475;28;20212;-32
2023/04/05 00:06:42;;;;;;;12.30;7.20;;;6.20;95.30;;;;;;5014544;28;20207;-32
2023/04/05 00:09:14;;;;;;;12.20;7.77;;;6.10;95.30;;;;;;5047557;28;20219;-33
2023/04/05 00:11:41;;;;;;;13.10;8.33;;;6.10;95.30;;;;;;5046475;28;20580;-33
2023/04/05 00:14:08;;;;;;;13.07;8.27;;;6.00;95.30;;;;;;5047260;28;20200;-33
2023/04/05 00:16:38;;;;;;;9.70;6.97;;;6.00;95.30;;;;;;5046341;28;20589;-32
2023/04/05 00:19:09;;;;;;;11.00;7.80;;;6.00;95.30;;;;;;5030254;28;20221;-33
2023/04/05 00:21:38;;;;;;;10.33;7.57;;;5.90;95.20;;;;;;5047491;28;20273;-34
2023/04/05 00:24:06;;;;;;;12.20;7.80;;;5.90;95.30;;;;;;5047754;28;20222;-33
2023/04/05 00:26:35;;;;;;;10.47;8.00;;;5.90;95.20;;;;;;5046098;28;20235;-33
2023/04/05 00:29:04;;;;;;;11.73;8.10;;;5.90;95.20;;;;;;5046087;28;20262;-32
2023/04/05 00:31:32;;;;;;;13.27;7.93;;;5.90;95.20;;;;;;5047342;28;20200;-32
2023/04/05 00:33:59;;;;;;;11.77;8.43;;;5.80;95.20;;;;;;5047234;28;20236;-34
2023/04/05 00:36:26;;;;;;;11.37;8.33;;;5.80;95.10;;;;;;5046137;28;20640;-34
2023/04/05 00:38:56;;;;;;;14.33;8.93;;;5.80;95.20;;;;;;5047410;28;20295;-34
2023/04/05 00:41:26;;;;;;;12.47;8.00;;;5.70;95.10;;;;;;5046491;28;20727;-35
2023/04/05 00:43:53;;;;;;;13.07;7.83;;;5.70;95.10;;;;;;5045648;28;20758;-35
2023/04/05 00:46:20;;;;;;;12.93;8.30;;;5.60;95.10;;;;;;5045738;28;20791;-34
2023/04/05 00:48:50;;;;;;;13.43;8.27;;;5.60;95.10;;;;;;5045710;28;20196;-34
2023/04/05 00:51:19;;;;;;;13.50;7.83;;;5.50;95.00;;;;;;5047285;28;20737;-35
2023/04/05 00:53:51;;;;;;;12.13;8.03;;;5.50;95.10;;;;;;5045471;28;20216;-32
2023/04/05 00:56:20;;;;;;;12.97;7.80;;;5.40;95.10;;;;;;5002446;28;1259362;-33
2023/04/05 00:58:50;;;;;;;11.33;7.53;;;5.40;95.00;;;;;;5045735;28;20235;-32
2023/04/05 01:01:25;;;;;;;12.77;7.97;;;5.30;95.00;;;;;;5048169;28;20315;-34
2023/04/05 01:03:58;;;;;;;13.07;8.60;;;5.30;95.00;;;;;;5032358;28;20207;-33
2023/04/05 01:06:52;;;;;;;12.30;8.07;;;5.20;95.00;;;;;;5043173;28;20996;-33
2023/04/05 01:09:36;;;;;;;12.40;8.10;;;5.20;95.00;;;;;;5041992;28;20204;-33
2023/04/05 01:12:09;;;;;;;11.07;7.83;;;5.10;95.00;;;;;;5046190;28;20228;-34
2023/04/05 01:15:02;;;;;;;11.83;8.10;;;5.10;95.00;;;;;;5045776;28;20216;-34
2023/04/05 01:17:37;;;;;;;13.70;9.00;;;5.10;95.00;;;;;;5037766;28;20227;-35
2023/04/05 01:20:09;;;;;;;12.00;8.47;;;5.00;94.90;;;;;;5047166;28;20204;-35
2023/04/05 01:23:00;;;;;;;12.07;8.63;;;5.00;95.20;;;;;;5047366;28;20234;-35
2023/04/05 01:25:48;;;;;;;13.17;8.23;;;5.00;95.00;;;;;;5046684;28;20200;-35
2023/04/05 01:28:49;;;;;;;13.43;8.53;;;5.00;95.10;;;;;;5047308;28;20204;-35
2023/04/05 01:31:44;;;;;;;14.27;8.87;;;4.90;95.00;;;;;;5046145;28;20303;-35
2023/04/05 01:34:17;;;;;;;13.33;8.10;;;4.90;95.10;;;;;;5044840;28;20204;-35
2023/04/05 01:37:01;;;;;;;11.10;8.37;;;4.90;95.00;;;;;;5045827;28;20295;-35
2023/04/05 01:39:30;;;;;;;12.17;7.77;;;4.90;95.20;;;;;;5047111;28;20303;-35
2023/04/05 01:42:00;;;;;;;16.50;8.57;;;4.90;95.10;;;;;;5046776;28;20224;-35
2023/04/05 01:44:28;;;;;;;13.17;8.27;;;4.90;95.20;;;;;;5045404;28;20228;-35
2023/04/05 01:46:55;;;;;;;14.63;7.90;;;4.90;95.20;;;;;;5046862;28;20224;-35
2023/04/05 01:49:25;;;;;;;12.07;8.03;;;4.90;95.30;;;;;;5046817;28;20634;-35
2023/04/05 01:51:57;;;;;;;12.37;7.63;;;4.90;95.30;;;;;;5047507;28;20208;-35
2023/04/05 01:54:24;;;;;;;12.23;8.10;;;4.90;95.30;;;;;;5044882;28;20566;-35
2023/04/05 01:56:51;;;;;;;10.37;7.77;;;4.90;95.30;;;;;;5046862;28;20296;-35
2023/04/05 01:59:18;;;;;;;13.27;7.97;;;4.90;95.30;;;;;;5045630;28;20238;-35
2023/04/05 02:01:48;;;;;;;12.67;7.93;;;4.90;95.40;;;;;;5045734;28;20235;-35
2023/04/05 02:04:15;;;;;;;13.73;8.10;;;4.90;95.40;;;;;;5046779;28;20299;-34
2023/04/05 02:06:42;;;;;;;13.27;8.77;;;4.80;95.40;;;;;;5046658;28;20513;-35
2023/04/05 02:09:14;;;;;;;13.83;8.87;;;4.80;95.40;;;;;;5046876;28;20675;-35
2023/04/05 02:11:42;;;;;;;12.23;8.43;;;4.80;95.40;;;;;;5045369;28;20200;-35
2023/04/05 02:14:09;;;;;;;10.40;7.70;;;4.80;95.40;;;;;;5045073;28;20223;-35
2023/04/05 02:16:38;;;;;;;11.97;7.97;;;4.80;95.40;;;;;;5045240;28;20196;-35
2023/04/05 02:19:12;;;;;;;13.47;8.37;;;4.70;95.40;;;;;;5046618;28;20660;-33
2023/04/05 02:21:41;;;;;;;10.37;7.87;;;4.70;95.40;;;;;;5046848;28;20290;-33
2023/04/05 02:24:08;;;;;;;12.53;7.93;;;4.70;95.40;;;;;;5046334;28;20216;-32
2023/04/05 02:26:38;;;;;;;11.70;8.20;;;4.70;95.40;;;;;;5044827;28;20239;-33
2023/04/05 02:29:05;;;;;;;11.20;7.97;;;4.60;95.40;;;;;;5044963;28;20797;-32
2023/04/05 02:31:32;;;;;;;12.30;8.23;;;4.60;95.30;;;;;;5044931;28;20636;-33
2023/04/05 02:33:59;;;;;;;11.23;8.33;;;4.60;95.40;;;;;;5028051;28;20207;-35
2023/04/05 02:36:27;;;;;;;12.87;8.60;;;4.60;95.50;;;;;;5044527;28;20294;-35
2023/04/05 02:38:59;;;;;;;12.50;8.80;;;4.60;95.50;;;;;;5029010;28;20693;-34
2023/04/05 02:41:26;;;;;;;12.33;8.37;;;4.50;95.40;;;;;;5046024;28;20247;-35
2023/04/05 02:43:56;;;;;;;12.83;8.80;;;4.50;95.40;;;;;;5045781;28;20291;-35
2023/04/05 02:46:23;;;;;;;13.57;8.80;;;4.50;95.50;;;;;;5044136;28;20250;-35
2023/04/05 02:48:55;;;;;;;11.40;8.03;;;4.40;95.50;;;;;;5028097;28;20297;-35
2023/04/05 02:51:25;;;;;;;13.77;8.20;;;4.40;95.40;;;;;;5046021;28;20207;-34
2023/04/05 02:53:52;;;;;;;12.30;9.07;;;4.40;95.40;;;;;;5046430;28;20620;-35
2023/04/05 02:56:22;;;;;;;11.87;8.20;;;4.40;95.40;;;;;;5044499;28;20267;-35
2023/04/05 02:58:51;;;;;;;11.03;7.63;;;4.40;95.40;;;;;;5046377;28;20282;-35
2023/04/05 03:01:19;;;;;;;13.20;8.50;;;4.40;95.50;;;;;;5046204;28;21254;-35
2023/04/05 03:03:51;;;;;;;16.13;8.10;;;4.40;95.50;;;;;;5046035;28;20209;-35
2023/04/05 03:06:21;;;;;;;10.73;7.73;;;4.40;95.50;;;;;;5045929;28;20235;-35
2023/04/05 03:08:51;;;;;;;11.07;8.07;;;4.30;95.50;;;;;;5044603;28;20603;-35
2023/04/05 03:11:23;;;;;;;12.73;8.67;;;4.30;95.60;;;;;;5028921;28;20205;-34
2023/04/05 03:13:50;;;;;;;12.77;8.03;;;4.30;95.60;;;;;;5044414;28;20204;-35
2023/04/05 03:16:21;;;;;;;10.60;8.17;;;4.30;95.60;;;;;;5028122;28;20315;-35
2023/04/05 03:18:48;;;;;;;11.73;8.00;;;4.30;95.60;;;;;;5044918;28;20596;-35
2023/04/05 03:21:18;;;;;;;13.17;7.93;;;4.20;95.50;;;;;;5046240;28;20224;-34
2023/04/05 03:23:47;;;;;;;10.43;8.13;;;4.20;95.50;;;;;;5043719;28;20236;-35
2023/04/05 03:26:17;;;;;;;13.07;8.20;;;4.20;95.50;;;;;;5043857;28;20204;-35
2023/04/05 03:28:47;;;;;;;11.30;7.87;;;4.20;95.60;;;;;;5045110;28;20199;-35
2023/04/05 03:31:14;;;;;;;13.13;8.50;;;4.20;95.50;;;;;;5045346;28;20574;-35
2023/04/05 03:33:43;;;;;;;11.37;8.23;;;4.10;95.50;;;;;;5045312;28;20218;-34
2023/04/05 03:36:15;;;;;;;12.17;8.50;;;4.10;95.50;;;;;;5027267;28;20295;-35
2023/04/05 03:38:44;;;;;;;12.90;8.07;;;4.10;95.50;;;;;;5045235;28;20690;-34
2023/04/05 03:41:11;;;;;;;13.47;8.40;;;4.10;95.50;;;;;;5043519;28;20274;-35
2023/04/05 03:43:43;;;;;;;14.10;8.17;;;4.00;95.50;;;;;;5045020;28;20202;-34
2023/04/05 03:46:10;;;;;;;13.47;9.17;;;4.00;95.50;;;;;;5043840;28;20215;-34
2023/04/05 03:48:38;;;;;;;14.77;8.07;;;4.00;95.40;;;;;;5044541;28;20208;-35
2023/04/05 03:51:05;;;;;;;11.43;7.90;;;4.00;95.50;;;;;;5047216;28;20200;-35
2023/04/05 03:53:32;;;;;;;10.87;7.97;;;4.00;95.50;;;;;;5049226;28;20534;-35
2023/04/05 03:56:02;;;;;;;12.57;8.53;;;3.90;95.40;;;;;;5048456;28;20240;-35
2023/04/05 03:58:34;;;;;;;12.67;8.70;;;3.90;95.50;;;;;;5048435;28;20702;-35
2023/04/05 04:01:05;;;;;;;12.83;8.53;;;3.90;95.50;;;;;;5048733;28;20196;-34
2023/04/05 04:03:38;;;;;;;11.73;8.07;;;3.80;95.50;;;;;;5046988;28;20211;-35
2023/04/05 04:06:06;;;;;;;11.00;8.50;;;3.90;95.50;;;;;;5048501;28;20714;-35
2023/04/05 04:08:38;;;;;;;12.97;8.90;;;3.80;95.50;;;;;;5047201;28;20281;-34
2023/04/05 04:11:06;;;;;;;13.13;8.07;;;3.80;95.50;;;;;;5048352;28;20265;-35
2023/04/05 04:13:35;;;;;;;12.63;8.73;;;3.80;95.40;;;;;;5048616;28;20287;-35
2023/04/05 04:16:05;;;;;;;12.67;8.10;;;3.70;95.40;;;;;;5048159;28;20502;-34
2023/04/05 04:18:32;;;;;;;12.83;9.00;;;3.70;95.30;;;;;;5047023;28;20227;-35
2023/04/05 04:21:05;;;;;;;12.13;8.43;;;3.70;95.40;;;;;;5048684;28;20626;-34
2023/04/05 04:23:37;;;;;;;13.33;8.37;;;3.70;95.50;;;;;;5048321;28;20227;-35
2023/04/05 04:26:06;;;;;;;13.90;8.70;;;3.70;95.40;;;;;;5048058;28;20205;-36
2023/04/05 04:28:42;;;;;;;13.20;9.00;;;3.60;95.50;;;;;;5047972;28;20204;-35
2023/04/05 04:31:15;;;;;;;10.97;8.53;;;3.60;95.50;;;;;;5048677;28;20291;-35
2023/04/05 04:33:48;;;;;;;12.57;8.93;;;3.60;95.60;;;;;;5048743;28;20242;-36
2023/04/05 04:36:33;;;;;;;12.40;8.53;;;3.60;95.40;;;;;;5046815;28;20221;-36
2023/04/05 04:39:07;;;;;;;12.23;8.20;;;3.60;95.40;;;;;;5048906;28;20214;-35
2023/04/05 04:41:37;;;;;;;15.00;8.97;;;3.50;95.40;;;;;;5046712;28;20211;-35
2023/04/05 04:44:13;;;;;;;15.57;9.40;;;3.50;95.50;;;;;;5046889;28;20196;-34
2023/04/05 04:46:42;;;;;;;12.67;8.63;;;3.50;95.60;;;;;;5047038;28;20213;-34
2023/04/05 04:49:12;;;;;;;12.17;9.30;;;3.50;95.40;;;;;;5047849;28;20678;-35
2023/04/05 04:51:39;;;;;;;18.10;8.93;;;3.50;95.50;;;;;;5047883;28;20297;-35
2023/04/05 04:54:06;;;;;;;16.27;9.67;;;3.50;95.40;;;;;;5047529;28;20204;-35
2023/04/05 04:56:36;;;;;;;14.43;9.00;;;3.40;95.50;;;;;;5047344;28;20259;-34
2023/04/05 04:59:08;;;;;;;11.33;8.20;;;3.40;95.50;;;;;;5046223;28;20204;-35
2023/04/05 05:01:39;;;;;;;13.93;8.33;;;3.40;95.50;;;;;;5044822;28;20237;-36
2023/04/05 05:04:08;;;;;;;12.70;8.30;;;3.40;95.50;;;;;;5047298;28;20214;-34
2023/04/05 05:06:43;;;;;;;11.10;8.40;;;3.40;95.70;;;;;;5047456;28;20200;-35
2023/04/05 05:09:13;;;;;;;12.03;8.70;;;3.40;95.50;;;;;;5045475;28;20203;-34
2023/04/05 05:11:40;;;;;;;12.10;8.70;;;3.40;95.60;;;;;;5047146;28;20197;-35
2023/04/05 05:14:09;;;;;;;13.60;9.40;;;3.30;95.60;;;;;;5045579;28;20306;-35
2023/04/05 05:16:37;;;;;;;15.07;9.27;;;3.30;95.60;;;;;;5045516;28;20753;-35
2023/04/05 05:19:07;;;;;;;12.07;8.77;;;3.30;95.50;;;;;;5046925;28;20205;-34
2023/04/05 05:21:36;;;;;;;13.30;8.43;;;3.30;95.60;;;;;;5029172;28;20301;-35
2023/04/05 05:24:08;;;;;;;13.40;9.17;;;3.30;95.60;;;;;;5046891;28;20666;-35
2023/04/05 05:26:36;;;;;;;13.43;8.47;;;3.30;95.60;;;;;;5046869;28;20716;-35
2023/04/05 05:29:04;;;;;;;13.40;8.70;;;3.30;95.60;;;;;;5046788;28;20726;-34
2023/04/05 05:31:34;;;;;;;13.20;8.80;;;3.30;95.60;;;;;;5046811;28;20777;-34
2023/04/05 05:34:01;;;;;;;13.80;8.87;;;3.30;95.60;;;;;;5046670;28;20215;-35
2023/04/05 05:36:29;;;;;;;11.77;8.10;;;3.30;95.60;;;;;;5045412;28;20196;-36
2023/04/05 05:38:57;;;;;;;11.83;8.20;;;3.30;95.50;;;;;;5046682;28;20242;-34
2023/04/05 05:41:28;;;;;;;14.67;8.40;;;3.40;95.60;;;;;;5046792;28;20227;-35
2023/04/05 05:43:55;;;;;;;12.80;9.10;;;3.40;95.60;;;;;;5045028;28;20228;-34
2023/04/05 05:46:22;;;;;;;20.03;9.47;;;3.40;95.60;;;;;;5045192;28;20517;-35
2023/04/05 05:48:54;;;;;;;21.80;9.60;;;3.40;95.70;;;;;;5046620;28;20339;-34
2023/04/05 05:51:21;;;;;;;16.67;9.87;;;3.40;95.80;;;;;;5046667;28;20739;-35
2023/04/05 05:53:49;;;;;;;17.00;9.77;;;3.40;95.80;;;;;;5046234;28;20204;-35
2023/04/05 05:56:16;;;;;;;14.47;9.77;;;3.40;95.80;;;;;;5044471;28;20726;-35
2023/04/05 05:58:48;;;;;;;21.63;10.70;;;3.40;95.90;;;;;;5044918;28;20197;-35
2023/04/05 06:01:18;;;;;;;13.87;9.73;;;3.50;95.80;;;;;;5028158;28;20200;-35
2023/04/05 06:03:45;;;;;;;15.20;9.47;;;3.50;95.80;;;;;;5044643;28;20238;-35
2023/04/05 06:06:17;;;;;;;13.37;8.87;;;3.50;95.80;;;;;;5045947;28;20274;-35
2023/04/05 06:08:50;;;;;;;15.70;9.73;;;3.50;95.80;;;;;;5046191;28;20758;-32
2023/04/05 06:11:24;;;;;;;19.33;10.23;;;3.60;95.90;;;;;;5043926;28;20212;-32
2023/04/05 06:13:54;;;;;;;21.90;10.53;;;3.60;95.90;;;;;;5044474;28;20627;-35
2023/04/05 06:16:23;;;;;;;25.40;10.87;;;3.60;96.00;;;;;;5044430;28;20206;-35
2023/04/05 06:18:51;;;;;;;20.07;9.90;;;3.60;96.00;;;;;;5045796;28;20224;-35
2023/04/05 06:21:20;;;;;;;14.63;9.20;;;3.70;95.90;;;;;;5045757;28;20216;-35
2023/04/05 06:23:49;;;;;;;14.83;9.47;;;3.70;95.90;;;;;;5027979;28;20598;-35
2023/04/05 06:26:19;;;;;;;25.47;10.27;;;3.70;96.00;;;;;;5046019;28;20726;-34
2023/04/05 06:28:47;;;;;;;36.70;11.30;;;3.80;96.00;;;;;;5044022;28;20212;-35
2023/04/05 06:31:16;;;;;;;20.60;11.10;;;3.80;96.10;;;;;;5046003;28;20238;-34
2023/04/05 06:33:43;;;;;;;16.03;9.77;;;3.80;96.10;;;;;;5044055;28;20358;-34
2023/04/05 06:36:10;;;;;;;28.53;12.13;;;3.80;96.20;;;;;;5044046;28;20686;-35
2023/04/05 06:38:38;;;;;;;24.77;10.97;;;3.90;96.30;;;;;;5045822;28;20219;-35
2023/04/05 06:41:07;;;;;;;31.30;11.03;;;3.90;96.20;;;;;;5046412;28;20613;-34
2023/04/05 06:43:37;;;;;;;26.03;10.07;;;4.00;96.30;;;;;;5045696;28;20223;-35
2023/04/05 06:46:11;;;;;;;22.00;10.07;;;4.00;96.30;;;;;;5044358;28;20271;-34
2023/04/05 06:48:43;;;;;;;20.13;9.97;;;4.10;96.40;;;;;;5045673;28;20646;-35
2023/04/05 06:51:12;;;;;;;16.47;9.50;;;4.10;96.50;;;;;;5045530;28;20197;-34
2023/04/05 06:53:40;;;;;;;18.03;10.90;;;4.20;96.60;;;;;;5044255;28;20243;-35
2023/04/05 06:56:10;;;;;;;15.73;9.07;;;4.20;96.60;;;;;;5045560;28;20246;-35
2023/04/05 06:58:39;;;;;;;20.00;10.33;;;4.20;96.50;;;;;;5045223;28;20614;-35
2023/04/05 07:01:09;;;;;;;20.47;9.10;;;4.30;96.70;;;;;;5046056;28;20595;-35
2023/04/05 07:03:36;;;;;;;16.43;9.77;;;4.30;96.70;;;;;;5043888;28;20219;-35
2023/04/05 07:06:08;;;;;;;16.50;9.70;;;4.40;96.70;;;;;;5045909;28;20219;-35
2023/04/05 07:08:37;;;;;;;17.63;10.43;;;4.40;96.70;;;;;;5045200;28;20647;-36
2023/04/05 07:11:07;;;;;;;23.30;10.70;;;4.50;96.80;;;;;;5043820;28;20831;-34
2023/04/05 07:13:36;;;;;;;18.57;10.47;;;4.60;96.90;;;;;;5045367;28;20247;-34
2023/04/05 07:16:03;;;;;;;19.17;9.80;;;4.60;97.00;;;;;;5043542;28;20901;-34
2023/04/05 07:18:31;;;;;;;13.50;9.63;;;4.60;96.90;;;;;;5043783;28;20219;-34
2023/04/05 07:21:02;;;;;;;15.37;9.83;;;4.70;97.00;;;;;;5044003;28;20212;-34
2023/04/05 07:23:32;;;;;;;18.00;9.90;;;4.70;97.00;;;;;;5045856;28;20220;-34
2023/04/05 07:26:07;;;;;;;16.73;10.37;;;4.80;97.10;;;;;;5049021;28;20675;-34
2023/04/05 07:28:37;;;;;;;19.73;10.10;;;4.80;97.10;;;;;;5047764;28;20274;-35
2023/04/05 07:31:05;;;;;;;13.70;9.43;;;4.90;97.20;;;;;;5047344;28;20207;-35
2023/04/05 07:33:33;;;;;;;18.50;10.07;;;4.90;97.20;;;;;;5048732;28;20208;-35
2023/04/05 07:36:04;;;;;;;14.47;10.00;;;5.00;97.30;;;;;;5031330;28;20287;-34
2023/04/05 07:38:32;;;;;;;12.70;9.57;;;5.00;97.30;;;;;;5031087;28;20215;-34
2023/04/05 07:41:02;;;;;;;17.43;10.83;;;5.10;97.30;;;;;;5049083;28;20227;-34
2023/04/05 07:43:31;;;;;;;13.13;9.17;;;5.20;97.40;;;;;;5047391;28;20219;-35
2023/04/05 07:46:06;;;;;;;14.47;9.10;;;5.30;97.40;;;;;;5048759;28;20307;-34
2023/04/05 07:48:34;;;;;;;12.73;9.17;;;5.30;97.50;;;;;;5048638;28;20532;-34
2023/04/05 07:51:09;;;;;;;14.53;9.30;;;5.40;97.60;;;;;;5047310;28;20675;-34
2023/04/05 07:53:41;;;;;;;19.63;8.87;;;5.50;97.70;;;;;;5048578;28;20264;-34
2023/04/05 07:56:15;;;;;;;14.07;9.03;;;5.60;97.70;;;;;;5048116;28;20236;-35
2023/04/05 07:58:46;;;;;;;12.87;8.60;;;5.60;97.70;;;;;;5046707;28;20572;-34
2023/04/05 08:01:16;;;;;;;20.53;10.03;;;5.60;97.70;;;;;;5048171;28;20200;-35
2023/04/05 08:03:43;;;;;;;16.73;10.20;;;5.70;97.80;;;;;;5047503;28;20293;-34
2023/04/05 08:06:18;;;;;;;17.90;9.60;;;5.80;97.80;;;;;;5047643;28;20296;-34
2023/04/05 08:08:50;;;;;;;16.20;9.67;;;5.90;97.80;;;;;;5046139;28;20196;-35
2023/04/05 08:11:17;;;;;;;26.57;10.10;;;5.90;97.80;;;;;;5046143;28;20331;-34
2023/04/05 08:13:45;;;;;;;14.87;9.73;;;6.00;97.80;;;;;;5047425;28;20569;-35
2023/04/05 08:16:12;;;;;;;15.97;8.63;;;6.10;97.90;;;;;;5046359;28;20204;-35
2023/04/05 08:18:42;;;;;;;16.80;9.20;;;6.20;97.80;;;;;;5047570;28;20288;-34
2023/04/05 08:21:09;;;;;;;13.20;7.77;;;6.20;97.90;;;;;;5047940;28;20208;-34
2023/04/05 08:23:39;;;;;;;16.57;8.23;;;6.30;98.20;;;;;;5030457;28;20243;-34
2023/04/05 08:26:06;;;;;;;12.30;7.90;;;6.30;98.00;;;;;;5047945;28;20200;-36
2023/04/05 08:28:36;;;;;;;15.20;8.83;;;6.40;98.00;;;;;;5046131;28;20291;-34
2023/04/05 08:31:05;;;;;;;11.70;7.13;;;6.40;97.90;;;;;;5046101;28;20200;-35
2023/04/05 08:33:35;;;;;;;11.97;8.03;;;6.50;98.00;;;;;;5047861;28;20220;-35
2023/04/05 08:36:04;;;;;;;13.67;8.30;;;6.60;98.10;;;;;;5046234;28;20216;-34
2023/04/05 08:38:31;;;;;;;12.90;7.80;;;6.60;98.10;;;;;;5047638;28;20738;-32
2023/04/05 08:41:12;;;;;;;14.73;8.23;;;6.70;98.10;;;;;;5047670;28;20240;-35
2023/04/05 08:43:51;;;;;;;13.20;7.57;;;6.70;98.10;;;;;;5045967;28;20212;-35
2023/04/05 08:46:19;;;;;;;11.70;7.80;;;6.80;98.10;;;;;;5046429;28;20715;-35
2023/04/05 08:48:49;;;;;;;10.77;7.33;;;6.90;98.20;;;;;;5045682;28;20599;-35
2023/04/05 08:51:19;;;;;;;9.73;6.83;;;6.90;98.20;;;;;;5047515;28;20212;-35
2023/04/05 08:53:47;;;;;;;12.90;7.30;;;7.00;98.20;;;;;;5029860;28;20574;-35
2023/04/05 08:56:20;;;;;;;9.60;6.20;;;7.00;98.20;;;;;;5047685;28;20232;-33
2023/04/05 08:59:10;;;;;;;9.07;6.33;;;7.10;98.20;;;;;;5047585;28;20464;-33
2023/04/05 09:01:47;;;;;;;10.47;6.07;;;7.20;98.20;;;;;;5047337;28;20197;-32
2023/04/05 09:04:21;;;;;;;11.50;6.47;;;7.30;98.20;;;;;;5047350;28;20227;-33
2023/04/05 09:06:56;;;;;;;11.73;7.20;;;7.30;98.20;;;;;;5046265;28;20336;-35
2023/04/05 09:09:24;;;;;;;11.23;6.07;;;7.40;98.30;;;;;;5047512;28;20225;-34
2023/04/05 09:11:55;;;;;;;8.40;5.77;;;7.40;98.30;;;;;;5047683;28;20239;-35
2023/04/05 09:14:23;;;;;;;9.03;6.27;;;7.50;98.30;;;;;;5047810;28;20199;-35
2023/04/05 09:16:50;;;;;;;8.87;5.70;;;7.60;98.00;;;;;;5046978;28;20240;-35
2023/04/05 09:19:22;;;;;;;8.00;5.00;;;7.70;98.20;;;;;;5046869;28;20222;-35
2023/04/05 09:22:07;;;;;;;7.73;4.83;;;7.70;98.30;;;;;;5029446;28;20299;-35
2023/04/05 09:24:41;;;;;;;8.60;5.97;;;7.80;98.30;;;;;;5046583;28;20593;-35
2023/04/05 09:27:18;;;;;;;6.80;5.20;;;7.80;97.60;;;;;;5045453;28;20215;-35
2023/04/05 09:29:48;;;;;;;8.20;5.40;;;7.90;98.20;;;;;;5045737;28;20218;-34
2023/04/05 09:32:20;;;;;;;9.23;6.37;;;8.00;98.30;;;;;;5046978;28;20559;-35
2023/04/05 09:34:59;;;;;;;9.87;6.33;;;8.10;98.50;;;;;;5046504;28;20783;-35
2023/04/05 09:37:27;;;;;;;11.97;7.03;;;8.20;98.40;;;;;;5046659;28;20616;-34
2023/04/05 09:40:03;;;;;;;12.87;7.53;;;8.20;97.80;;;;;;5046398;28;20212;-34
2023/04/05 09:42:46;;;;;;;14.40;6.90;;;8.30;98.20;;;;;;5044517;28;20222;-35
2023/04/05 09:45:14;;;;;;;7.60;5.57;;;8.40;98.30;;;;;;5046084;28;20204;-35
2023/04/05 09:47:52;;;;;;;11.20;7.30;;;8.40;98.40;;;;;;5045512;28;20290;-34
2023/04/05 09:50:22;;;;;;;9.23;6.83;;;8.50;98.50;;;;;;5045034;28;20212;-36
2023/04/05 09:53:06;;;;;;;9.87;6.57;;;8.50;98.40;;;;;;5045965;28;20659;-33
2023/04/05 09:55:36;;;;;;;10.80;6.40;;;8.60;98.50;;;;;;5046198;28;20274;-35
2023/04/05 09:58:03;;;;;;;13.43;6.60;;;8.60;98.50;;;;;;5045902;28;20212;-34
2023/04/05 10:00:34;;;;;;;7.60;5.77;;;8.60;98.40;;;;;;5044341;28;20207;-33
2023/04/05 10:03:04;;;;;;;9.40;6.23;;;8.70;98.60;;;;;;5045652;28;20710;-33
2023/04/05 10:05:33;;;;;;;13.13;6.87;;;8.70;98.60;;;;;;5028581;28;20246;-33
2023/04/05 10:08:05;;;;;;;11.47;6.60;;;8.80;98.60;;;;;;5044568;28;20218;-33
2023/04/05 10:10:46;;;;;;;13.70;8.13;;;8.80;98.70;;;;;;5046098;28;20206;-33
2023/04/05 10:13:15;;;;;;;9.63;6.73;;;8.90;98.00;;;;;;5046510;28;20227;-34
2023/04/05 10:15:45;;;;;;;9.30;7.13;;;9.00;98.50;;;;;;5045720;28;20212;-33
2023/04/05 10:18:23;;;;;;;13.23;8.23;;;9.10;98.40;;;;;;5044272;28;20609;-33
2023/04/05 10:20:51;;;;;;;12.37;7.80;;;9.10;97.50;;;;;;5046401;28;20224;-33
2023/04/05 10:23:30;;;;;;;9.53;6.77;;;9.20;98.30;;;;;;5045891;28;20212;-33
2023/04/05 10:26:10;;;;;;;9.93;6.90;;;9.20;98.40;;;;;;5046160;28;20287;-34
2023/04/05 10:28:42;;;;;;;13.33;7.80;;;9.30;98.60;;;;;;5045533;28;20299;-33
2023/04/05 10:31:51;;;;;;;12.57;7.50;;;9.30;98.80;;;;;;5043835;28;20285;-34
2023/04/05 10:34:21;;;;;;;10.13;6.93;;;9.40;98.60;;;;;;5045548;28;20318;-34
2023/04/05 10:37:00;;;;;;;11.57;7.73;;;9.30;98.70;;;;;;5045768;28;20581;-34
2023/04/05 10:39:48;;;;;;;12.27;7.23;;;9.40;97.80;;;;;;5045137;28;20302;-35
2023/04/05 10:42:24;;;;;;;10.20;6.70;;;9.40;98.60;;;;;;5044036;28;20231;-33
2023/04/05 10:44:58;;;;;;;9.30;6.10;;;9.50;98.50;;;;;;5044974;28;20224;-33
2023/04/05 10:47:30;;;;;;;11.43;7.13;;;9.60;98.80;;;;;;5045487;28;20304;-34
2023/04/05 10:50:02;;;;;;;10.57;6.63;;;9.70;98.80;;;;;;5045199;28;20207;-33
2023/04/05 10:52:33;;;;;;;7.57;5.90;;;9.70;98.80;;;;;;5044444;28;20634;-34
2023/04/05 10:55:03;;;;;;;8.93;6.80;;;9.80;98.90;;;;;;5045018;28;20242;-34
2023/04/05 10:57:31;;;;;;;11.20;7.37;;;9.80;98.70;;;;;;5045892;28;20341;-33
2023/04/05 10:59:59;;;;;;;8.90;6.93;;;9.80;98.60;;;;;;5048356;28;20204;-34
2023/04/05 11:02:28;;;;;;;11.57;7.30;;;9.90;98.60;;;;;;5048244;28;20208;-34
2023/04/05 11:04:56;;;;;;;12.00;7.47;;;9.90;98.70;;;;;;5048505;28;20224;-33
2023/04/05 11:07:40;;;;;;;11.03;7.80;;;10.00;98.40;;;;;;5047856;28;20258;-33
2023/04/05 11:10:19;;;;;;;9.90;7.50;;;10.00;97.90;;;;;;5048458;28;20666;-33
2023/04/05 11:12:54;;;;;;;11.43;7.27;;;10.10;98.10;;;;;;5049743;28;20243;-34
2023/04/05 11:15:26;;;;;;;11.93;7.43;;;10.20;98.00;;;;;;5050095;28;20216;-34
2023/04/05 11:18:14;;;;;;;14.93;8.90;;;10.20;98.10;;;;;;5049776;28;20204;-33
2023/04/05 11:20:45;;;;;;;11.30;7.33;;;10.20;97.40;;;;;;5048144;28;20223;-33
2023/04/05 11:23:17;;;;;;;8.67;7.13;;;10.20;98.20;;;;;;5047817;28;20235;-33
2023/04/05 11:26:05;;;;;;;12.40;8.33;;;10.40;98.50;;;;;;5047844;28;20234;-34
2023/04/05 11:28:39;;;;;;;9.13;6.67;;;10.40;97.70;;;;;;5049581;28;20204;-33
2023/04/05 11:31:21;;;;;;;12.33;6.87;;;10.40;98.10;;;;;;5049633;28;20196;-33
2023/04/05 11:34:09;;;;;;;8.47;6.73;;;10.50;98.10;;;;;;5047641;28;20204;-33
2023/04/05 11:36:44;;;;;;;7.83;5.73;;;10.50;98.30;;;;;;5049394;28;20550;-34
2023/04/05 11:39:18;;;;;;;9.43;7.17;;;10.50;98.40;;;;;;5048919;28;20208;-33
2023/04/05 11:41:51;;;;;;;13.33;8.27;;;10.60;97.40;;;;;;5049172;28;20204;-34
2023/04/05 11:44:19;;;;;;;8.20;6.80;;;10.60;97.40;;;;;;5048878;28;20368;-33
2023/04/05 11:46:46;;;;;;;8.83;6.40;;;10.70;98.10;;;;;;5047506;28;20202;-33
2023/04/05 11:49:20;;;;;;;13.17;7.53;;;10.70;98.20;;;;;;5047692;28;20269;-33
2023/04/05 11:51:51;;;;;;;9.47;7.00;;;10.70;98.30;;;;;;5047485;28;20208;-33
2023/04/05 11:54:32;;;;;;;11.20;7.67;;;10.70;98.20;;;;;;5047219;28;20295;-34
2023/04/05 11:57:02;;;;;;;8.57;6.40;;;10.70;98.20;;;;;;5049182;28;20545;-33
2023/04/05 11:59:34;;;;;;;8.60;6.87;;;10.80;98.30;;;;;;5047319;28;20208;-33
2023/04/05 12:02:05;;;;;;;9.57;6.20;;;10.80;98.40;;;;;;5048756;28;20262;-33
2023/04/05 12:04:35;;;;;;;9.97;7.53;;;10.80;98.40;;;;;;5047192;28;20244;-34
2023/04/05 12:07:19;;;;;;;13.23;8.10;;;10.90;98.40;;;;;;5047170;28;20208;-33
2023/04/05 12:10:21;;;;;;;11.93;7.87;;;10.90;97.90;;;;;;5047045;28;20246;-34
2023/04/05 12:12:52;;;;;;;10.17;7.60;;;11.00;97.90;;;;;;5046855;28;20214;-33
2023/04/05 12:15:19;;;;;;;8.53;6.77;;;11.00;98.20;;;;;;5048484;28;20227;-33
2023/04/05 12:17:53;;;;;;;10.77;7.53;;;11.00;98.40;;;;;;5048881;28;20785;-33
2023/04/05 12:20:24;;;;;;;13.73;7.10;;;11.10;98.30;;;;;;5046865;28;20219;-33
2023/04/05 12:22:54;;;;;;;10.40;7.20;;;11.10;98.50;;;;;;5048605;28;20204;-33
2023/04/05 12:25:22;;;;;;;11.70;8.10;;;11.20;98.50;;;;;;5046618;28;20362;-34
2023/04/05 12:27:49;;;;;;;11.10;7.17;;;11.30;97.90;;;;;;5048120;28;20212;-33
2023/04/05 12:30:21;;;;;;;14.07;8.53;;;11.30;98.20;;;;;;5046919;28;20266;-33
2023/04/05 12:32:53;;;;;;;12.33;8.23;;;11.40;97.60;;;;;;5047977;28;20208;-33
2023/04/05 12:35:30;;;;;;;10.20;7.63;;;11.40;98.00;;;;;;5047808;28;20219;-33
2023/04/05 12:37:59;;;;;;;11.93;7.87;;;11.50;97.80;;;;;;5047922;28;20729;-33
2023/04/05 12:40:29;;;;;;;11.53;7.70;;;11.50;98.10;;;;;;5046424;28;20192;-33
2023/04/05 12:43:09;;;;;;;10.27;7.63;;;11.60;97.90;;;;;;5047391;28;20204;-34
2023/04/05 12:45:41;;;;;;;12.57;8.03;;;11.60;98.00;;;;;;5047604;28;20781;-34
2023/04/05 12:48:20;;;;;;;9.67;7.10;;;11.70;97.90;;;;;;5047206;28;20223;-33
2023/04/05 12:50:50;;;;;;;8.47;6.20;;;11.70;98.40;;;;;;5029599;28;21162;-33
2023/04/05 12:53:24;;;;;;;12.50;7.70;;;11.70;98.50;;;;;;5047327;28;20291;-33
2023/04/05 12:55:57;;;;;;;13.07;8.20;;;11.80;98.30;;;;;;5047069;28;20243;-33
2023/04/05 12:58:41;;;;;;;11.50;7.53;;;11.80;98.40;;;;;;5045613;28;20203;-34
2023/04/05 13:01:11;;;;;;;9.43;7.20;;;11.80;98.30;;;;;;5045595;28;20295;-33
2023/04/05 13:03:45;;;;;;;9.63;7.17;;;11.90;98.40;;;;;;5045544;28;20682;-33
2023/04/05 13:06:15;;;;;;;10.87;7.23;;;11.90;98.50;;;;;;5045612;28;20192;-33
2023/04/05 13:08:43;;;;;;;10.73;7.00;;;12.00;98.60;;;;;;5045354;28;20258;-33